createdAt,value
2018-07-31T05:43:02.957Z,97955.52
2018-07-31T05:44:05.682Z,97959.00
2018-07-31T05:45:08.321Z,97967.66
2018-07-31T05:46:14.475Z,97962.41
2018-07-31T05:47:17.080Z,97962.88
2018-07-31T05:48:20.049Z,97964.58
2018-07-31T05:49:22.635Z,97963.72
2018-07-31T05:50:25.223Z,97964.28
2018-07-31T05:51:27.777Z,97790.76
2018-07-31T05:52:30.350Z,97965.30
2018-07-31T05:53:32.898Z,97900.95
2018-07-31T05:54:35.838Z,97967.16
2018-07-31T05:55:38.426Z,97962.97
2018-07-31T05:56:41.024Z,97968.56
2018-07-31T05:57:43.593Z,97967.22
2018-07-31T05:58:46.139Z,97967.59
2018-07-31T05:59:48.688Z,97966.84
2018-07-31T06:00:51.657Z,97968.37
2018-07-31T06:01:54.286Z,97970.09
2018-07-31T06:02:56.869Z,97968.77
2018-07-31T06:03:59.447Z,97970.72
2018-07-31T06:05:02.676Z,97966.70
2018-07-31T06:06:05.227Z,97966.70
2018-07-31T06:07:08.334Z,97966.89
2018-07-31T06:08:10.918Z,97967.86
2018-07-31T06:09:13.459Z,97965.01
2018-07-31T06:10:16.032Z,97983.50
2018-07-31T06:11:18.888Z,97968.41
2018-07-31T06:12:21.503Z,97969.73
2018-07-31T06:13:24.500Z,97963.61
2018-07-31T06:14:27.081Z,97962.63
2018-07-31T06:15:29.727Z,97964.36
2018-07-31T06:16:32.321Z,97963.61
2018-07-31T06:17:34.927Z,97973.70
2018-07-31T06:18:37.484Z,97968.20
2018-07-31T11:44:22.039Z,98004.97
2018-07-31T11:45:24.846Z,98008.52
2018-07-31T11:46:27.387Z,98007.96
2018-07-31T11:47:29.968Z,98005.67
2018-07-31T11:48:32.515Z,98002.19
2018-07-31T11:49:35.369Z,98001.17
2018-07-31T11:50:40.118Z,97992.23
2018-07-31T11:51:42.674Z,97990.69
2018-07-31T11:52:45.277Z,97993.41
2018-07-31T11:53:47.829Z,98001.33
2018-07-31T11:54:50.901Z,97998.17
2018-07-31T11:55:53.880Z,98005.13
2018-07-31T11:56:56.443Z,98007.33
2018-07-31T11:57:59.018Z,98006.38
2018-07-31T11:59:01.666Z,98001.50
2018-07-31T12:00:04.240Z,97998.81
2018-07-31T12:01:07.779Z,97996.02
2018-07-31T12:02:10.723Z,97991.05
2018-07-31T12:03:13.270Z,97834.09
2018-07-31T12:04:19.395Z,97989.23
2018-07-31T12:05:22.464Z,97994.08
2018-07-31T12:06:25.007Z,98003.09
2018-07-31T12:07:28.373Z,97994.67
2018-07-31T12:08:31.230Z,97995.16
2018-07-31T12:09:33.784Z,97991.52
2018-07-31T12:10:36.354Z,98000.03
2018-07-31T12:11:38.920Z,98004.91
2018-07-31T12:12:41.564Z,97998.22
2018-07-31T12:13:45.114Z,97998.09
2018-07-31T12:14:47.984Z,97997.74
2018-07-31T12:15:50.824Z,97991.91
2018-07-31T12:16:53.499Z,97992.27
2018-07-31T12:17:56.635Z,97998.00
2018-07-31T12:18:59.382Z,97821.97
2018-07-31T12:20:01.953Z,97999.34
2018-07-31T12:21:08.504Z,97997.05
2018-07-31T12:22:11.169Z,97989.02
2018-07-31T12:23:13.727Z,97995.59
2018-07-31T12:24:16.294Z,97992.91
2018-07-31T12:25:18.873Z,97998.27
2018-07-31T12:26:21.535Z,97995.97
2018-07-31T12:27:27.527Z,98002.28
2018-07-31T12:28:31.089Z,98000.34
2018-07-31T12:29:33.656Z,97992.91
2018-07-31T12:30:36.244Z,97992.91
2018-07-31T12:31:38.852Z,97825.77
2018-07-31T13:20:26.434Z,97982.28
2018-07-31T13:21:29.140Z,97992.23
2018-07-31T13:22:31.692Z,97989.94
2018-07-31T13:23:34.298Z,97986.84
2018-07-31T13:24:38.242Z,97989.97
2018-07-31T13:25:41.108Z,97987.98
2018-07-31T13:26:44.675Z,97991.57
2018-07-31T13:27:48.690Z,97986.86
2018-07-31T13:28:51.378Z,97989.33
2018-07-31T13:29:55.564Z,97982.89
2018-07-31T13:30:59.749Z,97989.45
2018-07-31T13:32:04.636Z,97990.70
2018-07-31T13:33:07.398Z,97989.72
2018-07-31T13:34:11.138Z,97985.22
2018-07-31T13:35:15.063Z,97982.45
2018-07-31T13:36:17.704Z,97986.82
2018-07-31T13:37:24.951Z,97989.88
2018-07-31T13:38:28.057Z,98012.22
2018-07-31T13:39:30.703Z,97992.95
2018-07-31T13:40:33.252Z,97994.80
2018-07-31T13:41:38.791Z,97993.81
2018-07-31T13:42:42.456Z,97992.61
2018-07-31T13:43:45.112Z,97989.06
2018-07-31T13:44:48.672Z,97979.30
2018-07-31T13:45:51.847Z,97980.07
2018-07-31T13:46:56.628Z,97981.89
2018-07-31T13:48:01.324Z,97983.70
2018-07-31T13:49:05.590Z,97994.80
2018-07-31T13:50:09.028Z,97994.30
2018-07-31T13:51:12.137Z,97992.86
2018-07-31T13:52:15.644Z,97992.86
2018-07-31T13:53:18.673Z,97991.94
2018-07-31T13:54:21.267Z,97994.50
2018-07-31T13:55:23.977Z,98004.92
2018-07-31T13:56:26.546Z,97989.61
2018-07-31T13:57:29.462Z,97991.34
2018-07-31T13:58:32.912Z,97986.94
2018-07-31T13:59:35.453Z,97989.61
2018-07-31T14:00:41.365Z,97982.56
2018-07-31T14:01:43.947Z,97986.59
2018-07-31T16:01:36.770Z,98002.77
2018-07-31T16:02:39.379Z,98001.66
2018-07-31T16:03:41.996Z,97999.34
2018-07-31T16:04:45.257Z,97988.24
2018-07-31T16:05:47.912Z,97990.75
2018-07-31T16:06:51.511Z,97997.17
2018-07-31T16:07:54.091Z,97995.27
2018-07-31T16:08:57.282Z,97998.20
2018-07-31T16:09:59.839Z,98003.09
2018-07-31T16:11:02.432Z,97998.20
2018-07-31T16:12:04.981Z,98002.23
2018-07-31T16:13:08.958Z,97998.50
2018-07-31T16:14:12.446Z,97992.15
2018-07-31T16:15:15.079Z,97995.81
2018-07-31T16:16:17.760Z,97996.55
2018-07-31T16:17:20.537Z,97996.30
2018-07-31T16:18:23.132Z,97995.05
2018-07-31T16:19:26.010Z,97993.71
2018-07-31T16:20:28.586Z,97992.02
2018-07-31T16:21:33.660Z,97992.02
2018-07-31T16:22:36.213Z,97993.62
2018-07-31T16:23:39.747Z,97994.83
2018-07-31T16:24:42.337Z,97992.62
2018-07-31T16:25:45.281Z,97994.13
2018-07-31T16:26:47.901Z,97989.89
2018-07-31T16:27:50.814Z,97994.00
2018-07-31T16:28:53.459Z,97988.39
2018-07-31T16:29:56.019Z,97989.47
2018-07-31T16:30:58.754Z,97992.02
2018-07-31T16:32:01.696Z,97988.35
2018-07-31T16:33:04.227Z,97986.70
2018-07-31T16:34:07.784Z,98013.38
2018-07-31T16:35:10.362Z,97992.53
2018-07-31T16:36:12.923Z,97850.42
2018-07-31T16:37:15.474Z,97992.66
2018-07-31T16:38:19.348Z,97988.42
2018-07-31T16:39:23.016Z,97993.78
2018-07-31T16:40:30.490Z,97992.44
2018-07-31T16:41:34.695Z,97992.44
2018-07-31T16:42:38.264Z,97985.01
2018-07-31T16:43:41.116Z,97992.31
2018-07-31T16:44:44.720Z,97996.81
2018-07-31T16:45:48.909Z,97999.23
2018-07-31T16:46:51.549Z,97998.50
2018-07-31T16:47:55.319Z,97992.75
2018-07-31T16:49:01.427Z,97994.57
2018-07-31T16:50:04.541Z,97991.80
2018-07-31T16:51:07.571Z,97993.88
2018-07-31T16:52:10.199Z,98002.14
2018-07-31T16:53:12.903Z,97998.38
2018-07-31T16:54:15.457Z,97994.23
2018-07-31T16:55:18.636Z,97996.91
2018-07-31T16:56:21.226Z,98002.52
2018-07-31T16:57:25.492Z,97996.04
2018-07-31T16:58:28.087Z,97994.70
2018-07-31T16:59:31.706Z,97992.50
2018-07-31T17:00:34.530Z,98005.55
2018-07-31T17:01:37.645Z,98003.52
2018-07-31T17:02:40.226Z,97996.33
2018-07-31T17:03:44.304Z,98001.95
2018-07-31T17:04:47.513Z,98005.84
2018-07-31T17:05:51.276Z,98003.39
2018-07-31T17:06:53.821Z,98007.62
2018-07-31T17:07:57.243Z,98009.95
2018-07-31T17:08:59.785Z,98012.25
2018-07-31T17:10:02.804Z,98006.28
2018-07-31T17:11:05.982Z,98014.45
2018-07-31T17:12:08.564Z,98009.48
2018-07-31T17:13:12.058Z,98012.98
2018-07-31T17:14:15.467Z,97910.24
2018-07-31T17:15:19.576Z,98015.99
2018-07-31T17:16:22.585Z,98015.35
2018-07-31T17:17:25.296Z,98017.52
2018-07-31T17:18:29.516Z,98014.93
2018-07-31T17:19:32.058Z,98027.47
2018-07-31T17:20:34.606Z,98019.17
2018-07-31T17:21:40.155Z,98018.81
2018-07-31T17:22:43.162Z,98027.20
2018-07-31T17:23:45.792Z,98017.48
2018-07-31T17:24:49.454Z,98023.66
2018-07-31T17:25:52.040Z,98023.31
2018-07-31T17:26:54.648Z,98027.20
2018-07-31T17:27:57.219Z,98029.80
2018-07-31T17:29:00.353Z,98032.00
2018-07-31T17:30:04.553Z,98033.69
2018-07-31T17:31:07.119Z,98027.85
2018-07-31T17:32:10.437Z,98031.01
2018-07-31T18:13:27.834Z,98081.86
2018-07-31T18:14:30.480Z,98086.80
2018-07-31T18:15:35.301Z,98086.05
2018-07-31T18:17:46.845Z,98087.59
2018-07-31T18:18:49.841Z,98086.33
2018-07-31T18:19:53.416Z,98082.96
2018-07-31T18:20:56.144Z,98085.42
2018-07-31T18:21:58.753Z,98089.83
2018-07-31T18:23:01.341Z,98092.77
2018-07-31T18:24:04.607Z,98094.98
2018-07-31T18:25:08.702Z,98096.31
2018-07-31T18:26:11.284Z,98100.33
2018-07-31T18:27:15.752Z,98096.31
2018-07-31T18:28:18.315Z,98096.67
2018-07-31T18:29:20.888Z,98099.73
2018-07-31T18:30:23.522Z,98101.94
2018-07-31T18:31:26.375Z,98103.28
2018-07-31T18:32:31.576Z,97927.87
2018-07-31T18:33:34.516Z,98112.44
2018-07-31T18:34:37.101Z,98100.38
2018-07-31T18:35:40.550Z,98111.19
2018-07-31T18:36:43.095Z,98108.03
2018-07-31T18:37:47.278Z,98106.79
2018-07-31T18:38:50.454Z,98109.47
2018-07-31T18:39:55.689Z,98106.70
2018-07-31T18:41:01.341Z,98113.39
2018-07-31T18:42:05.038Z,97941.81
2018-07-31T18:43:08.600Z,98109.16
2018-07-31T18:44:11.511Z,98108.30
2018-07-31T18:45:15.528Z,97962.44
2018-07-31T18:46:18.120Z,98114.61
2018-07-31T18:47:20.724Z,98121.31
2018-07-31T18:48:23.287Z,98117.29
2018-07-31T18:49:27.460Z,98122.66
2018-07-31T18:50:30.457Z,98125.33
2018-07-31T18:51:33.929Z,98128.40
2018-07-31T18:52:37.367Z,98125.24
2018-07-31T18:53:39.986Z,98127.32
2018-07-31T18:56:04.484Z,98131.81
2018-07-31T18:57:07.105Z,98130.12
2018-07-31T18:58:10.282Z,98130.86
2018-07-31T18:59:12.963Z,98132.30
2018-07-31T19:00:15.815Z,98134.88
2018-07-31T19:01:19.490Z,98130.95
2018-07-31T19:02:22.533Z,98129.27
2018-07-31T19:03:25.274Z,98135.84
2018-07-31T19:04:27.940Z,98136.97
2018-07-31T19:05:30.554Z,98139.43
2018-07-31T19:06:33.400Z,98150.06
2018-07-31T19:07:36.009Z,98142.59
2018-07-31T19:08:40.609Z,98005.09
2018-07-31T19:09:43.156Z,98150.63
2018-07-31T19:10:45.726Z,98147.59
2018-07-31T19:11:48.690Z,98148.94
2018-07-31T19:12:51.248Z,98148.33
2018-07-31T19:15:01.029Z,98149.55
2018-07-31T19:16:03.661Z,98152.73
2018-07-31T19:17:06.273Z,98157.23
2018-07-31T19:18:10.044Z,98156.64
2018-07-31T19:19:12.613Z,98161.88
2018-07-31T19:20:15.356Z,98160.11
2018-07-31T19:21:19.330Z,98155.34
2018-07-31T19:22:25.530Z,97988.25
2018-07-31T19:23:29.178Z,98160.53
2018-07-31T19:24:32.058Z,98166.67
2018-07-31T19:25:34.617Z,98164.60
2018-07-31T19:26:38.097Z,98165.73
2018-07-31T19:27:41.981Z,98162.00
2018-07-31T19:28:44.560Z,98166.98
2018-07-31T19:29:47.200Z,98164.77
2018-07-31T19:30:50.405Z,98168.53
2018-07-31T19:31:52.998Z,98167.20
2018-07-31T19:32:56.280Z,98167.58
2018-07-31T19:33:59.437Z,98167.45
2018-07-31T19:35:02.049Z,98164.90
2018-07-31T19:36:04.593Z,98171.48
2018-07-31T19:37:07.283Z,98169.66
2018-07-31T19:38:10.499Z,98177.22
2018-07-31T19:39:13.177Z,98173.77
2018-07-31T19:40:16.078Z,98172.43
2018-07-31T19:41:18.685Z,98172.43
2018-07-31T19:42:21.257Z,98175.97
2018-07-31T19:43:24.801Z,98172.08
2018-07-31T19:44:27.364Z,98171.69
2018-07-31T19:45:30.034Z,98168.75
2018-07-31T19:47:41.753Z,98173.46
2018-07-31T19:48:44.918Z,98172.64
2018-07-31T19:49:47.546Z,98024.14
2018-07-31T19:50:50.215Z,98175.11
2018-07-31T19:51:53.422Z,98177.66
2018-07-31T19:52:56.365Z,98177.88
2018-07-31T19:53:59.919Z,98173.59
2018-07-31T19:55:02.574Z,98176.53
2018-07-31T19:56:05.290Z,98177.53
2018-07-31T19:57:07.872Z,98173.20
2018-07-31T19:58:10.490Z,98180.17
2018-07-31T19:59:13.687Z,98175.89
2018-07-31T20:00:16.566Z,98182.03
2018-07-31T20:01:19.232Z,98181.20
2018-07-31T20:02:22.443Z,98184.57
2018-07-31T20:03:25.313Z,98191.36
2018-07-31T20:04:29.545Z,98195.98
2018-07-31T20:05:32.419Z,98062.80
2018-07-31T20:06:36.556Z,98206.83
2018-07-31T20:07:41.093Z,98196.11
2018-07-31T20:08:43.702Z,98199.74
2018-07-31T20:13:49.226Z,98205.44
